Time;durP1;ratioP1;P1;durP2;ratioP2;P2;SDS_P1;SDS_P2;PMS_P1;PMS_P2;Temp;Humidity;BMP_temperature;BMP_pressure;BME280_temperature;BME280_humidity;BME280_pressure;Samples;Min_cycle;Max_cycle;Signal;HPM_P1;HPM_P2
2023/03/13 00:01:38;;;;;;;18.40;3.90;;;;;;;;;;5137888;27;20405;-62
2023/03/13 00:04:04;;;;;;;10.68;3.40;;;;;;;;;;5137346;27;20043;-62
2023/03/13 00:06:31;;;;;;;15.07;3.97;;;;;;;;;;5138031;27;20103;-62
2023/03/13 00:08:59;;;;;;;13.27;4.65;;;;;;;;;;5138399;27;20047;-62
2023/03/13 00:11:26;;;;;;;11.82;4.35;;;;;;;;;;5138204;27;20090;-62
2023/03/13 00:13:56;;;;;;;16.80;4.72;;;;;;;;;;5140582;27;20039;-62
2023/03/13 00:16:22;;;;;;;17.25;4.63;;;;;;;;;;5139441;27;20046;-63
2023/03/13 00:18:49;;;;;;;16.67;4.22;;;;;;;;;;5137162;27;20539;-64
2023/03/13 00:21:16;;;;;;;14.63;4.20;;;;;;;;;;5140177;27;20050;-62
2023/03/13 00:23:42;;;;;;;16.85;4.70;;;;;;;;;;5135942;27;20043;-62
2023/03/13 00:26:09;;;;;;;15.07;3.83;;;;;;;;;;5137800;27;20085;-63
2023/03/13 00:28:36;;;;;;;16.85;4.55;;;;;;;;;;5136930;27;20054;-62
2023/03/13 00:31:07;;;;;;;15.50;4.00;;;;;;;;;;5133899;27;20520;-63
2023/03/13 00:33:33;;;;;;;17.58;3.97;;;;;;;;;;5135546;27;20035;-62
2023/03/13 00:36:00;;;;;;;15.40;4.85;;;;;;;;;;5135705;27;20051;-62
2023/03/13 00:38:28;;;;;;;21.63;5.28;;;;;;;;;;5116213;27;20054;-62
2023/03/13 00:41:04;;;;;;;14.48;6.00;;;;;;;;;;5131733;27;20051;-63
2023/03/13 00:43:31;;;;;;;19.02;4.78;;;;;;;;;;5135595;27;20047;-63
2023/03/13 00:45:57;;;;;;;17.55;4.82;;;;;;;;;;5132204;27;20054;-64
2023/03/13 00:48:23;;;;;;;20.60;5.35;;;;;;;;;;5113425;27;20126;-62
2023/03/13 00:50:49;;;;;;;15.60;5.63;;;;;;;;;;5136504;27;20049;-63
2023/03/13 00:53:15;;;;;;;17.60;5.15;;;;;;;;;;5132818;27;20047;-63
2023/03/13 00:55:52;;;;;;;23.50;5.38;;;;;;;;;;5133881;27;20060;-63
2023/03/13 00:58:18;;;;;;;21.13;5.50;;;;;;;;;;5135429;27;20089;-63
2023/03/13 01:00:44;;;;;;;22.60;6.07;;;;;;;;;;5134363;27;20103;-62
2023/03/13 01:03:10;;;;;;;21.27;5.88;;;;;;;;;;5134447;27;20879;-62
2023/03/13 01:05:36;;;;;;;26.60;6.03;;;;;;;;;;5133944;27;20102;-62
2023/03/13 01:08:02;;;;;;;15.82;4.75;;;;;;;;;;5130522;27;20054;-62
2023/03/13 01:10:28;;;;;;;18.58;6.15;;;;;;;;;;5132844;27;20096;-62
2023/03/13 01:12:54;;;;;;;14.60;5.35;;;;;;;;;;5131397;27;20508;-62
2023/03/13 01:15:20;;;;;;;21.65;5.88;;;;;;;;;;5131687;27;20111;-63
2023/03/13 01:17:46;;;;;;;18.80;5.55;;;;;;;;;;5131276;27;20095;-62
2023/03/13 01:20:12;;;;;;;21.35;5.40;;;;;;;;;;5124235;27;20143;-62
2023/03/13 01:22:38;;;;;;;19.08;6.30;;;;;;;;;;5124218;27;20054;-62
2023/03/13 01:25:05;;;;;;;20.20;5.43;;;;;;;;;;5126115;27;20433;-63
2023/03/13 01:27:31;;;;;;;21.60;5.82;;;;;;;;;;5133323;27;20043;-62
2023/03/13 01:29:57;;;;;;;20.00;5.45;;;;;;;;;;5130732;27;20039;-62
2023/03/13 01:32:23;;;;;;;12.93;4.30;;;;;;;;;;5124601;27;21174;-62
2023/03/13 01:34:49;;;;;;;21.08;6.22;;;;;;;;;;5128361;27;20122;-63
2023/03/13 01:37:15;;;;;;;19.00;5.90;;;;;;;;;;5124675;27;20135;-62
2023/03/13 01:39:41;;;;;;;25.10;6.68;;;;;;;;;;5131322;27;20051;-62
2023/03/13 01:42:07;;;;;;;18.35;5.35;;;;;;;;;;5128423;27;20045;-63
2023/03/13 01:44:52;;;;;;;16.77;5.25;;;;;;;;;;5123752;27;20066;-63
2023/03/13 01:47:18;;;;;;;16.35;5.13;;;;;;;;;;5125085;27;20050;-63
2023/03/13 01:49:44;;;;;;;16.98;5.07;;;;;;;;;;5130620;27;20043;-63
2023/03/13 01:52:14;;;;;;;19.75;5.28;;;;;;;;;;5127690;27;20505;-63
2023/03/13 01:54:49;;;;;;;19.15;4.82;;;;;;;;;;5131522;27;20058;-63
2023/03/13 01:57:26;;;;;;;22.58;5.35;;;;;;;;;;5127297;27;20557;-63
2023/03/13 01:59:55;;;;;;;16.85;4.10;;;;;;;;;;5128605;27;20108;-63
2023/03/13 02:02:21;;;;;;;14.75;6.18;;;;;;;;;;5124319;27;20501;-63
2023/03/13 02:04:49;;;;;;;17.23;4.80;;;;;;;;;;5105698;27;20046;-63
2023/03/13 02:07:17;;;;;;;21.23;5.15;;;;;;;;;;5125567;27;20055;-63
2023/03/13 02:09:48;;;;;;;19.77;4.95;;;;;;;;;;5133547;27;20043;-63
2023/03/13 02:12:15;;;;;;;13.27;4.05;;;;;;;;;;5136389;27;20035;-63
2023/03/13 02:14:43;;;;;;;18.15;5.38;;;;;;;;;;5130403;27;20051;-63
2023/03/13 02:17:09;;;;;;;18.52;5.05;;;;;;;;;;5129133;27;20416;-63
2023/03/13 02:19:41;;;;;;;11.10;4.82;;;;;;;;;;5129858;27;20069;-62
2023/03/13 02:22:15;;;;;;;14.57;5.22;;;;;;;;;;5124194;27;20070;-62
2023/03/13 02:25:00;;;;;;;17.85;4.90;;;;;;;;;;5131596;27;20754;-63
2023/03/13 02:27:26;;;;;;;13.30;3.85;;;;;;;;;;5124968;27;20332;-63
2023/03/13 02:29:52;;;;;;;12.30;4.47;;;;;;;;;;5130827;27;20087;-62
2023/03/13 02:32:18;;;;;;;14.93;4.05;;;;;;;;;;5124550;27;20043;-63
2023/03/13 02:34:47;;;;;;;11.30;4.05;;;;;;;;;;5130678;27;20047;-63
2023/03/13 02:37:13;;;;;;;7.82;3.28;;;;;;;;;;5106922;27;20043;-63
2023/03/13 02:39:42;;;;;;;11.82;3.50;;;;;;;;;;5131561;27;20096;-63
2023/03/13 02:42:08;;;;;;;9.00;3.20;;;;;;;;;;5130257;27;20043;-62
2023/03/13 02:44:38;;;;;;;7.22;3.22;;;;;;;;;;5135291;27;20370;-62
2023/03/13 02:47:04;;;;;;;10.10;4.32;;;;;;;;;;5134776;27;20420;-62
2023/03/13 02:49:31;;;;;;;8.20;3.53;;;;;;;;;;5133872;27;20047;-63
2023/03/13 02:51:59;;;;;;;10.20;3.72;;;;;;;;;;5138372;27;20038;-63
2023/03/13 02:54:31;;;;;;;10.27;3.55;;;;;;;;;;5131298;27;20043;-62
2023/03/13 02:56:58;;;;;;;8.15;3.33;;;;;;;;;;5137419;27;20137;-62
2023/03/13 02:59:24;;;;;;;6.10;3.45;;;;;;;;;;5137994;27;20089;-62
2023/03/13 03:01:51;;;;;;;8.43;3.45;;;;;;;;;;5137123;27;20138;-62
2023/03/13 03:04:17;;;;;;;9.32;3.45;;;;;;;;;;5138412;27;20385;-62
2023/03/13 03:06:43;;;;;;;6.45;3.05;;;;;;;;;;5137066;27;20039;-62
2023/03/13 03:09:09;;;;;;;6.18;3.05;;;;;;;;;;5133082;27;20258;-62
2023/03/13 03:11:35;;;;;;;5.47;2.30;;;;;;;;;;5108940;27;20134;-62
2023/03/13 03:14:02;;;;;;;5.20;2.50;;;;;;;;;;5127678;27;20043;-62
2023/03/13 03:16:28;;;;;;;9.30;2.80;;;;;;;;;;5128747;27;20047;-62
2023/03/13 03:18:54;;;;;;;7.20;3.13;;;;;;;;;;5130325;27;20054;-62
2023/03/13 03:21:20;;;;;;;4.00;2.88;;;;;;;;;;5126996;27;20517;-63
2023/03/13 03:23:46;;;;;;;5.35;2.63;;;;;;;;;;5114228;27;20116;-63
2023/03/13 03:26:12;;;;;;;4.80;2.67;;;;;;;;;;5128849;27;20050;-64
2023/03/13 03:28:38;;;;;;;4.95;2.65;;;;;;;;;;5126984;27;20051;-62
2023/03/13 03:31:08;;;;;;;4.57;2.33;;;;;;;;;;5127882;27;20154;-63
2023/03/13 03:33:34;;;;;;;3.13;2.20;;;;;;;;;;5126944;27;20047;-62
2023/03/13 03:36:01;;;;;;;3.78;2.22;;;;;;;;;;5126609;27;20043;-63
2023/03/13 03:38:27;;;;;;;4.72;2.75;;;;;;;;;;5135091;27;20055;-63
2023/03/13 03:40:53;;;;;;;6.18;2.38;;;;;;;;;;5127173;27;20043;-62
2023/03/13 03:43:19;;;;;;;2.33;2.13;;;;;;;;;;5137162;27;20156;-63
2023/03/13 03:45:45;;;;;;;3.88;2.53;;;;;;;;;;5134032;27;20191;-62
2023/03/13 03:48:11;;;;;;;3.65;1.90;;;;;;;;;;5129802;27;20047;-62
2023/03/13 03:50:37;;;;;;;5.80;2.50;;;;;;;;;;5125934;27;20058;-62
2023/03/13 03:53:03;;;;;;;4.03;2.10;;;;;;;;;;5126872;27;20043;-63
2023/03/13 03:55:29;;;;;;;4.50;2.33;;;;;;;;;;5126618;27;20081;-63
2023/03/13 03:57:55;;;;;;;2.70;1.77;;;;;;;;;;5126502;27;20076;-62
2023/03/13 04:00:21;;;;;;;2.03;1.90;;;;;;;;;;5134522;27;20047;-62
2023/03/13 04:02:48;;;;;;;4.32;2.30;;;;;;;;;;5136918;27;20413;-63
2023/03/13 04:05:14;;;;;;;3.45;2.35;;;;;;;;;;5134254;27;20495;-63
2023/03/13 04:07:40;;;;;;;2.92;1.88;;;;;;;;;;5131561;27;20054;-62
2023/03/13 04:10:06;;;;;;;2.33;1.80;;;;;;;;;;5129260;27;20058;-63
2023/03/13 04:12:32;;;;;;;1.88;1.70;;;;;;;;;;5114304;27;20046;-62
2023/03/13 04:14:58;;;;;;;4.03;1.77;;;;;;;;;;5140325;27;20051;-64
2023/03/13 04:17:25;;;;;;;2.03;1.70;;;;;;;;;;5125970;27;20346;-63
2023/03/13 04:19:51;;;;;;;2.22;1.55;;;;;;;;;;5125502;27;20188;-62
2023/03/13 04:22:17;;;;;;;1.85;1.73;;;;;;;;;;5126396;27;20043;-63
2023/03/13 04:24:43;;;;;;;2.35;2.15;;;;;;;;;;5126141;27;20058;-63
2023/03/13 04:27:08;;;;;;;3.80;3.50;;;;;;;;;;5127313;27;20405;-64
2023/03/13 04:29:34;;;;;;;4.18;3.72;;;;;;;;;;5133812;27;20143;-63
2023/03/13 04:32:01;;;;;;;4.55;3.97;;;;;;;;;;5125540;27;20043;-63
2023/03/13 04:34:27;;;;;;;6.38;4.72;;;;;;;;;;5126051;27;20833;-63
2023/03/13 04:36:54;;;;;;;6.15;5.43;;;;;;;;;;5125954;27;20122;-63
2023/03/13 04:39:24;;;;;;;5.53;5.13;;;;;;;;;;5136941;27;20584;-63
2023/03/13 04:41:53;;;;;;;7.93;5.57;;;;;;;;;;5136026;27;20099;-63
2023/03/13 04:44:19;;;;;;;8.50;6.72;;;;;;;;;;5131329;27;20043;-63
2023/03/13 04:46:45;;;;;;;10.05;7.00;;;;;;;;;;5138140;27;20066;-64
2023/03/13 04:49:11;;;;;;;8.93;6.82;;;;;;;;;;5129907;27;20066;-63
2023/03/13 04:51:38;;;;;;;9.85;7.20;;;;;;;;;;5138334;27;20039;-62
2023/03/13 04:54:04;;;;;;;9.40;7.18;;;;;;;;;;5136264;27;20051;-63
2023/03/13 04:56:30;;;;;;;7.28;6.60;;;;;;;;;;5135991;27;20043;-62
2023/03/13 04:58:55;;;;;;;8.25;6.68;;;;;;;;;;5133347;27;20038;-63
2023/03/13 05:01:22;;;;;;;9.75;6.43;;;;;;;;;;5124432;27;20104;-62
2023/03/13 05:03:48;;;;;;;7.93;6.45;;;;;;;;;;5125936;27;20054;-63
2023/03/13 05:06:14;;;;;;;7.30;6.13;;;;;;;;;;5125854;27;20043;-64
2023/03/13 05:08:40;;;;;;;12.73;6.47;;;;;;;;;;5131830;27;20679;-63
2023/03/13 05:11:06;;;;;;;12.70;6.00;;;;;;;;;;5116981;27;20050;-63
2023/03/13 05:13:32;;;;;;;11.27;6.80;;;;;;;;;;5126956;27;20081;-63
2023/03/13 05:15:58;;;;;;;13.23;6.85;;;;;;;;;;5125478;27;20070;-63
2023/03/13 05:18:24;;;;;;;9.73;6.20;;;;;;;;;;5125195;27;20043;-62
2023/03/13 05:20:50;;;;;;;12.10;6.65;;;;;;;;;;5125432;27;20455;-63
2023/03/13 05:23:16;;;;;;;12.75;6.10;;;;;;;;;;5129233;27;20035;-63
2023/03/13 05:25:42;;;;;;;14.60;7.13;;;;;;;;;;5135951;27;20042;-63
2023/03/13 05:28:08;;;;;;;14.57;6.28;;;;;;;;;;5136688;27;20047;-64
2023/03/13 05:30:35;;;;;;;13.60;6.25;;;;;;;;;;5135877;27;20587;-63
2023/03/13 05:33:01;;;;;;;11.93;5.93;;;;;;;;;;5132592;27;20116;-63
2023/03/13 05:35:27;;;;;;;9.18;5.30;;;;;;;;;;5134263;27;20034;-64
2023/03/13 05:37:53;;;;;;;7.15;4.25;;;;;;;;;;5138225;27;20081;-63
2023/03/13 05:40:19;;;;;;;8.75;5.63;;;;;;;;;;5136560;27;20062;-63
2023/03/13 05:42:45;;;;;;;8.10;4.50;;;;;;;;;;5136849;27;20098;-63
2023/03/13 05:45:11;;;;;;;11.15;4.40;;;;;;;;;;5129756;27;20339;-63
2023/03/13 05:47:37;;;;;;;9.52;4.20;;;;;;;;;;5134486;27;20133;-63
2023/03/13 05:50:04;;;;;;;10.15;4.20;;;;;;;;;;5129491;27;20050;-63
2023/03/13 05:52:30;;;;;;;11.90;4.55;;;;;;;;;;5134397;27;20108;-63
2023/03/13 05:54:56;;;;;;;6.32;4.00;;;;;;;;;;5131282;27;20683;-63
2023/03/13 05:57:22;;;;;;;8.80;3.78;;;;;;;;;;5131946;27;20035;-63
2023/03/13 05:59:48;;;;;;;9.98;4.07;;;;;;;;;;5132585;27;20130;-63
2023/03/13 06:02:14;;;;;;;14.73;5.80;;;;;;;;;;5134853;27;20049;-63
2023/03/13 06:04:40;;;;;;;9.98;5.15;;;;;;;;;;5134543;27;20327;-63
2023/03/13 06:07:06;;;;;;;14.77;5.75;;;;;;;;;;5135270;27;20569;-63
2023/03/13 06:09:32;;;;;;;9.40;5.00;;;;;;;;;;5115970;27;20421;-63
2023/03/13 06:11:58;;;;;;;8.63;4.43;;;;;;;;;;5131422;27;20050;-63
2023/03/13 06:14:24;;;;;;;8.85;4.32;;;;;;;;;;5133081;27;20077;-63
2023/03/13 06:16:50;;;;;;;8.63;3.88;;;;;;;;;;5135635;27;20046;-63
2023/03/13 06:19:17;;;;;;;16.27;5.20;;;;;;;;;;5135886;27;20043;-63
2023/03/13 06:21:43;;;;;;;10.07;4.35;;;;;;;;;;5133590;27;20043;-63
2023/03/13 06:24:09;;;;;;;12.00;4.90;;;;;;;;;;5132879;27;20042;-63
2023/03/13 06:26:35;;;;;;;14.25;5.18;;;;;;;;;;5134410;27;20158;-63
2023/03/13 06:29:01;;;;;;;11.63;4.97;;;;;;;;;;5131696;27;20537;-64
2023/03/13 06:31:27;;;;;;;15.10;4.88;;;;;;;;;;5132572;27;20092;-63
2023/03/13 06:33:56;;;;;;;10.15;4.20;;;;;;;;;;5137505;27;20400;-62
2023/03/13 06:36:23;;;;;;;17.90;5.47;;;;;;;;;;5140086;27;20038;-63
2023/03/13 06:38:49;;;;;;;14.80;4.13;;;;;;;;;;5140652;27;20082;-63
2023/03/13 06:41:15;;;;;;;12.95;4.18;;;;;;;;;;5135969;27;20047;-63
2023/03/13 06:43:41;;;;;;;14.10;4.50;;;;;;;;;;5136032;27;20038;-63
2023/03/13 06:46:08;;;;;;;11.55;4.20;;;;;;;;;;5139252;27;20058;-63
2023/03/13 06:48:34;;;;;;;10.55;3.97;;;;;;;;;;5138043;27;20039;-63
2023/03/13 06:51:00;;;;;;;9.75;4.63;;;;;;;;;;5137066;27;20047;-64
2023/03/13 06:53:26;;;;;;;13.13;4.30;;;;;;;;;;5138603;27;20115;-63
2023/03/13 06:55:52;;;;;;;12.20;4.25;;;;;;;;;;5138826;27;20039;-63
2023/03/13 06:58:18;;;;;;;10.82;4.32;;;;;;;;;;5136297;27;20446;-63
2023/03/13 07:00:45;;;;;;;8.30;3.78;;;;;;;;;;5136304;27;20053;-63
2023/03/13 07:03:11;;;;;;;10.88;4.40;;;;;;;;;;5136716;27;20054;-63
2023/03/13 07:05:37;;;;;;;10.63;4.15;;;;;;;;;;5139185;27;20035;-63
2023/03/13 07:08:03;;;;;;;12.43;4.65;;;;;;;;;;5135264;27;20054;-63
2023/03/13 07:10:32;;;;;;;10.40;3.70;;;;;;;;;;5135428;27;20051;-63
2023/03/13 07:12:58;;;;;;;12.63;4.13;;;;;;;;;;5143056;27;20038;-63
2023/03/13 07:15:24;;;;;;;8.38;3.75;;;;;;;;;;5140351;27;20058;-63
2023/03/13 07:17:50;;;;;;;9.32;3.97;;;;;;;;;;5137455;27;20082;-63
2023/03/13 07:20:16;;;;;;;12.55;3.70;;;;;;;;;;5138965;27;20043;-63
2023/03/13 07:22:42;;;;;;;12.93;4.40;;;;;;;;;;5142441;27;20090;-63
2023/03/13 07:25:08;;;;;;;17.75;3.75;;;;;;;;;;5138048;27;20668;-63
2023/03/13 07:27:34;;;;;;;16.20;4.10;;;;;;;;;;5134753;27;20511;-63
2023/03/13 07:30:00;;;;;;;11.40;3.75;;;;;;;;;;5141788;27;20043;-63
2023/03/13 07:32:31;;;;;;;13.95;4.40;;;;;;;;;;5136812;27;20070;-63
2023/03/13 07:34:57;;;;;;;7.88;4.13;;;;;;;;;;5136207;27;20075;-63
2023/03/13 07:37:23;;;;;;;6.25;3.25;;;;;;;;;;5142696;27;20081;-63
2023/03/13 07:39:49;;;;;;;9.43;3.97;;;;;;;;;;5136951;27;20117;-64
2023/03/13 07:42:15;;;;;;;12.98;3.83;;;;;;;;;;5138934;27;20031;-63
2023/03/13 07:44:41;;;;;;;6.95;3.08;;;;;;;;;;5135089;27;20043;-63
2023/03/13 07:47:07;;;;;;;10.90;3.78;;;;;;;;;;5135439;27;20038;-63
2023/03/13 07:49:38;;;;;;;5.32;3.25;;;;;;;;;;5140998;27;20488;-63
2023/03/13 07:52:04;;;;;;;15.40;4.03;;;;;;;;;;5137925;27;20569;-65
2023/03/13 07:54:30;;;;;;;10.45;3.60;;;;;;;;;;5136344;27;21561;-64
2023/03/13 07:56:56;;;;;;;8.40;3.05;;;;;;;;;;5138449;27;20517;-63
2023/03/13 07:59:22;;;;;;;6.38;2.60;;;;;;;;;;5138746;27;20062;-63
2023/03/13 08:01:48;;;;;;;8.13;3.03;;;;;;;;;;5137465;27;20046;-63
2023/03/13 08:04:14;;;;;;;7.72;3.55;;;;;;;;;;5133127;27;20038;-65
2023/03/13 08:06:40;;;;;;;12.02;4.20;;;;;;;;;;5136246;27;20138;-63
2023/03/13 08:09:07;;;;;;;9.77;3.30;;;;;;;;;;5138020;27;20477;-63
2023/03/13 08:11:33;;;;;;;7.05;2.85;;;;;;;;;;5136657;27;20084;-63
2023/03/13 08:13:59;;;;;;;7.50;2.85;;;;;;;;;;5138552;27;20501;-63
2023/03/13 08:16:29;;;;;;;6.90;2.92;;;;;;;;;;5134346;27;20047;-63
2023/03/13 08:18:57;;;;;;;11.82;3.17;;;;;;;;;;5133032;27;20522;-63
2023/03/13 08:21:24;;;;;;;11.02;2.92;;;;;;;;;;5131612;27;20060;-63
2023/03/13 08:23:54;;;;;;;8.52;2.67;;;;;;;;;;5136853;27;20053;-63
2023/03/13 08:26:21;;;;;;;7.13;2.65;;;;;;;;;;5137499;27;20536;-62
2023/03/13 08:28:48;;;;;;;7.35;2.00;;;;;;;;;;5132902;27;20517;-60
2023/03/13 08:31:21;;;;;;;5.97;2.58;;;;;;;;;;5135110;27;20561;-64
2023/03/13 08:33:47;;;;;;;6.28;2.92;;;;;;;;;;5130714;27;20497;-64
2023/03/13 08:36:32;;;;;;;7.28;2.50;;;;;;;;;;5142241;27;20046;-64
2023/03/13 08:39:04;;;;;;;4.50;2.40;;;;;;;;;;5130431;27;20160;-62
2023/03/13 08:41:33;;;;;;;7.35;2.30;;;;;;;;;;5138820;27;20051;-63
2023/03/13 08:43:59;;;;;;;6.13;2.78;;;;;;;;;;5134733;27;20087;-63
2023/03/13 08:46:28;;;;;;;6.97;2.10;;;;;;;;;;5134112;27;20034;-63
2023/03/13 08:48:54;;;;;;;11.55;3.05;;;;;;;;;;5141884;27;20063;-63
2023/03/13 08:51:22;;;;;;;10.40;3.25;;;;;;;;;;5138854;27;20039;-63
2023/03/13 08:53:48;;;;;;;5.18;2.30;;;;;;;;;;5128574;27;20083;-63
2023/03/13 08:56:15;;;;;;;5.53;2.42;;;;;;;;;;5135465;27;20031;-63
2023/03/13 08:58:41;;;;;;;12.25;1.88;;;;;;;;;;5135311;27;20050;-63
2023/03/13 09:01:11;;;;;;;7.88;2.17;;;;;;;;;;5135083;27;20049;-63
2023/03/13 09:03:38;;;;;;;4.78;1.63;;;;;;;;;;5133094;27;20039;-64
2023/03/13 09:06:04;;;;;;;5.03;2.15;;;;;;;;;;5130856;27;20039;-63
2023/03/13 09:08:31;;;;;;;7.20;1.83;;;;;;;;;;5130044;27;21992;-63
2023/03/13 09:10:57;;;;;;;3.70;1.35;;;;;;;;;;5134042;27;20050;-64
2023/03/13 09:13:24;;;;;;;3.88;1.70;;;;;;;;;;5128947;27;20035;-63
2023/03/13 09:16:00;;;;;;;7.40;1.85;;;;;;;;;;5130962;27;20541;-63
2023/03/13 09:18:27;;;;;;;5.60;1.73;;;;;;;;;;5125830;27;20050;-64
2023/03/13 09:20:53;;;;;;;5.18;1.90;;;;;;;;;;5135068;27;20035;-63
2023/03/13 09:23:20;;;;;;;7.05;1.92;;;;;;;;;;5134900;27;20035;-64
2023/03/13 09:25:46;;;;;;;4.97;2.25;;;;;;;;;;5117469;27;20099;-63
2023/03/13 09:28:12;;;;;;;4.35;1.73;;;;;;;;;;5143686;27;20046;-64
2023/03/13 09:30:38;;;;;;;6.45;2.00;;;;;;;;;;5135821;27;20047;-62
2023/03/13 09:33:04;;;;;;;11.82;2.83;;;;;;;;;;5135055;27;20031;-63
2023/03/13 09:35:30;;;;;;;6.60;1.50;;;;;;;;;;5127076;27;20046;-63
2023/03/13 09:37:56;;;;;;;7.82;2.65;;;;;;;;;;5139396;27;20506;-63
2023/03/13 09:40:23;;;;;;;9.40;2.95;;;;;;;;;;5138296;27;20103;-62
2023/03/13 09:42:51;;;;;;;9.23;2.50;;;;;;;;;;5136564;27;20046;-63
2023/03/13 09:45:38;;;;;;;7.82;2.50;;;;;;;;;;5137420;27;20042;-63
2023/03/13 09:48:21;;;;;;;7.63;2.83;;;;;;;;;;5140113;27;20102;-62
2023/03/13 09:50:54;;;;;;;11.50;2.97;;;;;;;;;;5137537;27;20435;-63
2023/03/13 09:53:30;;;;;;;9.48;2.92;;;;;;;;;;5134324;27;20490;-63
2023/03/13 09:55:57;;;;;;;13.85;3.30;;;;;;;;;;5126782;27;20061;-62
2023/03/13 09:58:25;;;;;;;11.70;3.15;;;;;;;;;;5140325;27;20056;-63
2023/03/13 10:00:53;;;;;;;6.07;2.45;;;;;;;;;;5133935;27;20422;-63
2023/03/13 10:03:20;;;;;;;14.20;3.15;;;;;;;;;;5131776;27;20051;-63
2023/03/13 10:05:48;;;;;;;9.00;2.95;;;;;;;;;;5144154;27;20141;-63
2023/03/13 10:08:19;;;;;;;17.10;3.13;;;;;;;;;;5139708;27;20062;-63
2023/03/13 10:10:52;;;;;;;13.05;3.38;;;;;;;;;;5151116;27;20053;-63
2023/03/13 10:13:20;;;;;;;10.38;2.83;;;;;;;;;;5145351;27;20043;-63
2023/03/13 10:15:50;;;;;;;12.30;3.42;;;;;;;;;;5147956;27;20047;-63
2023/03/13 10:18:20;;;;;;;14.05;3.35;;;;;;;;;;5146796;27;20081;-63
2023/03/13 10:20:47;;;;;;;12.57;3.63;;;;;;;;;;5147797;27;20711;-63
2023/03/13 10:23:26;;;;;;;9.32;3.55;;;;;;;;;;5131792;27;20040;-63
2023/03/13 10:25:52;;;;;;;5.60;2.70;;;;;;;;;;5142767;27;20046;-63
2023/03/13 10:28:19;;;;;;;12.23;3.40;;;;;;;;;;5142297;27;20095;-63
2023/03/13 10:30:57;;;;;;;9.98;3.30;;;;;;;;;;5141438;27;20046;-63
2023/03/13 10:33:25;;;;;;;11.63;3.10;;;;;;;;;;5145205;27;20076;-63
2023/03/13 10:36:06;;;;;;;16.35;3.63;;;;;;;;;;5146368;27;20863;-63
2023/03/13 10:38:33;;;;;;;10.18;2.83;;;;;;;;;;5138437;27;20085;-63
2023/03/13 10:41:17;;;;;;;9.68;3.38;;;;;;;;;;5148337;27;20035;-64
2023/03/13 10:43:53;;;;;;;13.45;3.97;;;;;;;;;;5147269;27;20066;-64
2023/03/13 10:46:28;;;;;;;10.23;3.20;;;;;;;;;;5118339;27;20043;-63
2023/03/13 10:48:55;;;;;;;9.48;3.65;;;;;;;;;;5134328;27;20043;-63
2023/03/13 10:51:22;;;;;;;22.45;4.20;;;;;;;;;;5121706;27;20038;-64
2023/03/13 10:53:48;;;;;;;12.05;3.63;;;;;;;;;;5143745;27;20057;-64
2023/03/13 10:56:19;;;;;;;11.52;3.58;;;;;;;;;;5135547;27;20031;-63
2023/03/13 10:58:49;;;;;;;20.05;4.05;;;;;;;;;;5137421;27;20039;-63
2023/03/13 11:01:16;;;;;;;20.05;4.30;;;;;;;;;;5140103;27;20518;-63
2023/03/13 11:03:42;;;;;;;10.75;3.85;;;;;;;;;;5142065;27;20055;-63
2023/03/13 11:06:19;;;;;;;15.57;4.65;;;;;;;;;;5134615;27;20505;-64
2023/03/13 11:08:45;;;;;;;13.90;3.85;;;;;;;;;;5141863;27;20054;-64
2023/03/13 11:11:19;;;;;;;12.40;3.50;;;;;;;;;;5139062;27;20118;-64
2023/03/13 11:13:45;;;;;;;18.33;4.00;;;;;;;;;;5141721;27;20038;-63
2023/03/13 11:16:19;;;;;;;13.02;3.53;;;;;;;;;;5136299;27;20095;-63
2023/03/13 11:18:54;;;;;;;14.38;3.25;;;;;;;;;;5141912;27;20047;-64
2023/03/13 11:21:23;;;;;;;14.95;3.90;;;;;;;;;;5136742;27;20359;-63
2023/03/13 11:23:54;;;;;;;14.80;4.30;;;;;;;;;;5135018;27;20401;-64
2023/03/13 11:26:26;;;;;;;13.18;3.60;;;;;;;;;;5134762;27;20035;-64
2023/03/13 11:28:59;;;;;;;15.60;3.65;;;;;;;;;;5140004;27;20065;-64
2023/03/13 11:31:25;;;;;;;11.68;3.13;;;;;;;;;;5145599;27;20043;-64
2023/03/13 11:33:57;;;;;;;11.82;3.08;;;;;;;;;;5143291;27;20069;-64
2023/03/13 11:36:24;;;;;;;9.63;3.33;;;;;;;;;;5139088;27;20482;-64
2023/03/13 11:38:55;;;;;;;11.60;3.22;;;;;;;;;;5132445;27;20066;-64
2023/03/13 11:41:33;;;;;;;10.07;2.97;;;;;;;;;;5135430;27;20386;-64
2023/03/13 11:44:14;;;;;;;8.80;2.45;;;;;;;;;;5142265;27;20430;-64
2023/03/13 11:46:49;;;;;;;8.90;2.80;;;;;;;;;;5131255;27;20055;-64
2023/03/13 11:49:37;;;;;;;14.65;3.42;;;;;;;;;;5129552;27;20063;-64
2023/03/13 11:52:06;;;;;;;9.88;3.05;;;;;;;;;;5132131;27;20099;-63
2023/03/13 11:54:47;;;;;;;11.10;3.08;;;;;;;;;;5144799;27;20485;-63
2023/03/13 11:57:21;;;;;;;8.05;2.95;;;;;;;;;;5145164;27;20053;-64
2023/03/13 11:59:59;;;;;;;13.48;3.58;;;;;;;;;;5146321;27;20146;-57
2023/03/13 12:02:50;;;;;;;10.00;3.10;;;;;;;;;;5140240;27;20380;-65
2023/03/13 12:05:18;;;;;;;12.68;2.97;;;;;;;;;;5122026;27;20433;-64
2023/03/13 12:07:53;;;;;;;12.23;3.40;;;;;;;;;;5158254;27;20058;-64
2023/03/13 12:10:28;;;;;;;12.45;3.40;;;;;;;;;;5147367;27;20089;-64
2023/03/13 12:13:11;;;;;;;10.35;3.65;;;;;;;;;;5131921;27;20039;-64
2023/03/13 12:15:40;;;;;;;13.73;3.42;;;;;;;;;;5146517;27;20052;-65
2023/03/13 12:18:14;;;;;;;14.10;3.83;;;;;;;;;;5138926;27;20129;-64
2023/03/13 12:20:40;;;;;;;11.93;3.75;;;;;;;;;;5143427;27;20047;-64
2023/03/13 12:23:15;;;;;;;16.40;3.75;;;;;;;;;;5140163;27;20060;-64
2023/03/13 12:26:06;;;;;;;14.00;3.88;;;;;;;;;;5134637;27;20038;-64
2023/03/13 12:28:44;;;;;;;10.65;3.90;;;;;;;;;;5145401;27;20139;-64
2023/03/13 12:31:17;;;;;;;12.52;4.18;;;;;;;;;;5135895;27;20086;-65
2023/03/13 12:34:01;;;;;;;15.35;4.32;;;;;;;;;;5138818;27;20038;-64
2023/03/13 12:36:35;;;;;;;15.10;4.10;;;;;;;;;;5146905;27;20137;-64
2023/03/13 12:39:04;;;;;;;14.82;4.00;;;;;;;;;;5125561;27;20050;-64
2023/03/13 12:41:40;;;;;;;18.23;4.47;;;;;;;;;;5151611;27;20060;-64
2023/03/13 12:44:08;;;;;;;14.00;3.83;;;;;;;;;;5158052;27;20063;-64
2023/03/13 12:46:40;;;;;;;14.38;3.58;;;;;;;;;;5153792;27;20072;-65
2023/03/13 12:49:13;;;;;;;11.77;3.85;;;;;;;;;;5150324;27;20564;-64
2023/03/13 12:51:42;;;;;;;13.35;3.75;;;;;;;;;;5138257;27;20043;-64
2023/03/13 12:54:08;;;;;;;11.40;3.60;;;;;;;;;;5138112;27;20043;-64
2023/03/13 12:57:12;;;;;;;12.90;3.90;;;;;;;;;;5126917;27;20050;-64
2023/03/13 12:59:40;;;;;;;14.63;4.30;;;;;;;;;;5022427;28;20080;-66
2023/03/13 13:02:17;;;;;;;12.20;3.80;;;;;;;;;;5023608;28;20041;-64
2023/03/13 13:04:44;;;;;;;13.73;3.88;;;;;;;;;;5089542;27;20406;-64
2023/03/13 13:07:43;;;;;;;15.00;4.50;;;;;;;;;;5126159;27;20406;-64
2023/03/13 13:10:09;;;;;;;12.75;4.00;;;;;;;;;;5090123;27;20223;-64
2023/03/13 13:12:36;;;;;;;12.05;4.03;;;;;;;;;;5146643;27;20537;-65
2023/03/13 13:15:15;;;;;;;16.75;3.80;;;;;;;;;;5146759;27;20043;-64
2023/03/13 13:17:44;;;;;;;16.65;4.22;;;;;;;;;;5147090;27;20458;-64
2023/03/13 13:20:25;;;;;;;14.90;4.30;;;;;;;;;;5145828;27;20051;-65
2023/03/13 13:22:51;;;;;;;13.90;4.25;;;;;;;;;;5146304;27;20410;-64
2023/03/13 13:25:17;;;;;;;17.42;4.65;;;;;;;;;;5144540;27;20158;-64
2023/03/13 13:27:43;;;;;;;15.30;4.38;;;;;;;;;;5125192;27;20510;-64
2023/03/13 13:30:18;;;;;;;18.65;4.28;;;;;;;;;;5125339;27;20046;-64
2023/03/13 13:32:44;;;;;;;14.43;4.43;;;;;;;;;;5125950;27;20162;-64
2023/03/13 13:35:20;;;;;;;15.40;4.47;;;;;;;;;;5124824;27;20082;-65
2023/03/13 13:37:46;;;;;;;18.13;4.68;;;;;;;;;;5125859;27;20767;-65
2023/03/13 13:40:15;;;;;;;12.75;4.30;;;;;;;;;;5124534;27;20057;-64
2023/03/13 13:42:53;;;;;;;14.90;3.92;;;;;;;;;;5125498;27;20114;-57
2023/03/13 13:45:35;;;;;;;19.65;5.38;;;;;;;;;;5126283;27;20039;-65
2023/03/13 13:48:14;;;;;;;16.48;4.32;;;;;;;;;;5125131;28;20568;-64
2023/03/13 13:51:00;;;;;;;15.27;4.25;;;;;;;;;;5115692;27;20046;-63
2023/03/13 13:53:30;;;;;;;18.45;4.78;;;;;;;;;;5128160;27;20464;-64
2023/03/13 13:55:57;;;;;;;15.40;4.53;;;;;;;;;;5142210;27;20073;-64
2023/03/13 13:58:30;;;;;;;15.13;4.35;;;;;;;;;;5137872;27;20425;-64
2023/03/13 14:00:59;;;;;;;18.75;5.18;;;;;;;;;;5152780;27;20099;-64
2023/03/13 14:03:26;;;;;;;12.85;3.95;;;;;;;;;;5140629;27;20477;-64
2023/03/13 14:05:55;;;;;;;17.85;4.45;;;;;;;;;;5143705;27;20602;-63
2023/03/13 14:08:28;;;;;;;12.70;4.32;;;;;;;;;;5141916;27;20066;-64
2023/03/13 14:11:04;;;;;;;22.02;4.82;;;;;;;;;;5151312;27;20114;-63
2023/03/13 14:13:30;;;;;;;20.63;4.80;;;;;;;;;;5146242;27;20129;-64
2023/03/13 14:15:56;;;;;;;15.20;4.53;;;;;;;;;;5144781;27;20117;-64
2023/03/13 14:18:26;;;;;;;21.45;5.10;;;;;;;;;;5125412;28;20050;-63
2023/03/13 14:20:55;;;;;;;19.67;4.68;;;;;;;;;;5140771;27;20047;-63
2023/03/13 14:23:28;;;;;;;13.43;4.30;;;;;;;;;;5141310;27;20061;-63
2023/03/13 14:25:54;;;;;;;16.10;5.47;;;;;;;;;;5119163;27;20048;-64
2023/03/13 14:28:20;;;;;;;14.98;4.45;;;;;;;;;;5131566;27;20047;-63
2023/03/13 14:30:47;;;;;;;16.00;4.68;;;;;;;;;;5144694;27;20050;-63
2023/03/13 14:33:13;;;;;;;16.88;4.82;;;;;;;;;;5132337;27;20395;-63
2023/03/13 14:35:40;;;;;;;17.55;4.40;;;;;;;;;;5146357;27;20083;-63
2023/03/13 14:38:06;;;;;;;16.67;4.90;;;;;;;;;;5152596;27;20138;-64
2023/03/13 14:40:35;;;;;;;19.88;4.95;;;;;;;;;;5150212;27;20480;-63
2023/03/13 14:43:01;;;;;;;21.10;5.75;;;;;;;;;;5152988;27;20042;-64
2023/03/13 14:45:31;;;;;;;15.73;5.25;;;;;;;;;;5143233;27;20515;-64